KOCF

Ocala International-Jim Taylor Field Airport

Ocala, Florida, USA
METAR KOCF 170051Z AUTO 29006KT 10SM CLR 13/10 A3014 RMK AO2 SLP210 T01330100 $
Observed Flight Rules
Dec-17 @ 00:51 UTC (15 minutes ago) Visual Flight Rules
Wind Visibility Clouds
290° at 6 knots 10 miles
  • Clear skies
Temperatures Readings
Current 13°C / 55°F
Dewpoint 10°C / 50°F
Humidity 82%
Altimeter 30.14" Hg
Pressure 1021 hPa
Elevation 27
METAR KOCF 170051Z AUTO 29006KT 10SM CLR 13/10 A3014 RMK AO2 SLP210 T01330100 $
Observed Flight Rules
Dec-17 @ 00:51 UTC
(15 minutes ago)
VFR
Wind Visibility
290° at 6 knots 10 miles
Clouds
  • Clear skies
Temperature Dewpoint
13°C / 55°F 10°C / 50°F
Humidity Altimeter Pressure
82% 30.14" Hg 1021 hPa